Time;durP1;ratioP1;P1;durP2;ratioP2;P2;SDS_P1;SDS_P2;PMS_P1;PMS_P2;Temp;Humidity;BMP_temperature;BMP_pressure;BME280_temperature;BME280_humidity;BME280_pressure;Samples;Min_cycle;Max_cycle;Signal;HPM_P1;HPM_P2
2024/01/12 00:00:46;;;;;;;13.13;7.00;;;3.70;80.70;;;;;;5030812;28;20038;-67
2024/01/12 00:03:12;;;;;;;14.27;6.35;;;3.70;80.60;;;;;;5023591;28;20018;-67
2024/01/12 00:05:38;;;;;;;11.02;6.53;;;3.70;80.60;;;;;;5036373;28;20577;-67
2024/01/12 00:08:04;;;;;;;15.10;6.85;;;3.70;80.60;;;;;;5031294;28;20056;-66
2024/01/12 00:10:30;;;;;;;10.85;5.78;;;3.70;80.60;;;;;;5029943;28;20049;-67
2024/01/12 00:12:55;;;;;;;9.65;6.25;;;3.70;80.60;;;;;;5033648;28;20029;-67
2024/01/12 00:15:21;;;;;;;12.60;6.75;;;3.70;80.50;;;;;;5035076;28;20461;-67
2024/01/12 00:17:47;;;;;;;14.05;7.63;;;3.70;80.50;;;;;;5029205;28;20068;-66
2024/01/12 00:20:12;;;;;;;12.93;7.07;;;3.70;80.60;;;;;;5066532;28;20036;-66
2024/01/12 00:22:38;;;;;;;16.92;8.32;;;3.70;80.70;;;;;;5037973;28;20033;-66
2024/01/12 00:25:04;;;;;;;12.38;6.28;;;3.60;80.80;;;;;;5037159;28;20037;-66
2024/01/12 00:27:30;;;;;;;10.50;7.15;;;3.70;80.90;;;;;;5060702;28;20063;-66
2024/01/12 00:29:55;;;;;;;10.98;6.38;;;3.70;80.90;;;;;;5035165;28;20065;-66
2024/01/12 00:32:21;;;;;;;11.25;6.32;;;3.70;80.80;;;;;;5029183;28;20026;-66
2024/01/12 00:34:47;;;;;;;9.27;5.25;;;3.70;80.80;;;;;;5033941;28;20033;-66
2024/01/12 00:37:13;;;;;;;17.40;7.45;;;3.70;80.80;;;;;;5041131;28;20017;-66
2024/01/12 00:39:38;;;;;;;13.60;6.85;;;3.70;80.80;;;;;;5037215;28;20036;-67
2024/01/12 00:42:05;;;;;;;12.23;6.65;;;3.70;80.90;;;;;;5034612;28;20136;-67
2024/01/12 00:44:30;;;;;;;13.95;6.40;;;3.60;81.00;;;;;;5042549;28;20037;-67
2024/01/12 00:46:56;;;;;;;10.02;6.05;;;3.60;81.20;;;;;;5034413;28;20056;-67
2024/01/12 00:49:22;;;;;;;15.52;6.13;;;3.60;81.10;;;;;;5037205;28;20021;-67
2024/01/12 00:51:48;;;;;;;10.93;6.00;;;3.60;81.10;;;;;;5037503;28;20041;-67
2024/01/12 00:54:15;;;;;;;9.43;4.80;;;3.60;81.20;;;;;;5036518;28;20487;-67
2024/01/12 00:56:40;;;;;;;11.30;5.13;;;3.60;81.20;;;;;;5032104;28;20025;-67
2024/01/12 00:59:07;;;;;;;10.70;5.68;;;3.70;81.20;;;;;;5030945;28;20094;-66
2024/01/12 01:01:34;;;;;;;11.25;5.88;;;3.70;81.10;;;;;;5026639;28;20453;-67
2024/01/12 01:04:03;;;;;;;17.27;7.47;;;3.70;81.00;;;;;;5070451;28;20089;-67
2024/01/12 01:06:29;;;;;;;9.23;5.85;;;3.70;81.00;;;;;;5042887;28;20063;-67
2024/01/12 01:08:55;;;;;;;9.77;5.63;;;3.70;81.00;;;;;;5041550;28;20072;-67
2024/01/12 01:11:22;;;;;;;10.40;6.22;;;3.70;81.00;;;;;;5037592;28;20045;-66
2024/01/12 01:13:48;;;;;;;10.35;6.10;;;3.70;81.10;;;;;;5041000;28;20384;-66
2024/01/12 01:16:13;;;;;;;9.20;5.68;;;3.70;81.00;;;;;;5042250;28;20029;-66
2024/01/12 01:18:39;;;;;;;9.48;4.53;;;3.70;81.00;;;;;;5037834;28;20036;-67
2024/01/12 01:21:05;;;;;;;8.75;5.20;;;3.70;81.00;;;;;;5033878;28;20046;-67
2024/01/12 01:23:31;;;;;;;8.73;5.10;;;3.70;81.00;;;;;;5033592;28;20091;-66
2024/01/12 01:25:56;;;;;;;12.70;5.80;;;3.70;81.00;;;;;;5034915;28;20040;-66
2024/01/12 01:28:22;;;;;;;6.50;4.03;;;3.70;81.00;;;;;;5030955;28;20029;-67
2024/01/12 01:30:48;;;;;;;9.73;5.68;;;3.70;81.10;;;;;;5037496;28;20029;-67
2024/01/12 01:33:14;;;;;;;9.30;5.45;;;3.80;81.20;;;;;;5031613;28;20128;-65
2024/01/12 01:35:39;;;;;;;6.13;3.97;;;3.80;81.10;;;;;;5027602;28;20109;-66
2024/01/12 01:38:05;;;;;;;6.45;4.70;;;3.80;81.00;;;;;;5038384;28;20033;-65
2024/01/12 01:40:31;;;;;;;7.03;3.03;;;3.80;81.00;;;;;;5033230;28;20086;-66
2024/01/12 01:43:06;;;;;;;6.20;3.70;;;3.80;81.00;;;;;;5027079;28;20108;-67
2024/01/12 01:45:33;;;;;;;8.68;4.53;;;3.90;81.00;;;;;;5027937;28;20035;-66
2024/01/12 01:48:00;;;;;;;5.18;3.80;;;3.80;80.90;;;;;;5032463;28;20038;-66
2024/01/12 01:50:25;;;;;;;6.72;4.03;;;3.80;80.90;;;;;;5034093;28;20440;-66
2024/01/12 01:52:52;;;;;;;5.18;3.30;;;3.90;80.90;;;;;;5034577;28;20065;-66
2024/01/12 01:55:18;;;;;;;6.68;3.78;;;3.90;80.90;;;;;;5033056;28;20496;-66
2024/01/12 01:57:45;;;;;;;8.73;3.47;;;3.80;80.90;;;;;;5032847;28;20055;-66
2024/01/12 02:00:12;;;;;;;6.13;3.13;;;3.80;80.90;;;;;;5038103;28;20424;-66
2024/01/12 02:02:38;;;;;;;11.93;4.30;;;3.80;80.90;;;;;;5035504;28;20041;-66
2024/01/12 02:05:07;;;;;;;6.75;3.05;;;3.80;80.90;;;;;;5032841;28;20514;-66
2024/01/12 02:07:34;;;;;;;10.00;2.95;;;3.90;81.00;;;;;;5036183;28;20026;-66
2024/01/12 02:10:00;;;;;;;12.48;4.43;;;3.90;81.00;;;;;;5038621;28;20339;-66
2024/01/12 02:12:27;;;;;;;5.35;3.40;;;3.90;81.00;;;;;;5029857;28;20452;-66
2024/01/12 02:14:53;;;;;;;8.23;3.25;;;3.90;81.00;;;;;;5032933;28;20034;-67
2024/01/12 02:17:19;;;;;;;6.90;3.05;;;3.90;81.00;;;;;;5036421;28;20078;-66
2024/01/12 02:19:45;;;;;;;5.72;3.13;;;3.90;81.00;;;;;;5035796;28;20041;-67
2024/01/12 02:22:11;;;;;;;6.53;3.28;;;3.90;81.00;;;;;;5038124;28;20029;-67
2024/01/12 02:24:36;;;;;;;3.88;2.92;;;3.80;81.00;;;;;;5036866;28;20052;-67
2024/01/12 02:27:02;;;;;;;11.48;2.75;;;3.90;81.10;;;;;;5038378;28;20037;-67
2024/01/12 02:29:28;;;;;;;5.43;2.42;;;3.80;81.00;;;;;;5033725;28;20116;-66
2024/01/12 02:31:55;;;;;;;6.53;2.70;;;3.90;81.00;;;;;;5038581;28;20103;-66
2024/01/12 02:34:21;;;;;;;5.50;2.75;;;3.90;81.10;;;;;;5037125;28;20032;-66
2024/01/12 02:36:46;;;;;;;6.50;3.05;;;3.90;81.10;;;;;;5041582;28;20029;-66
2024/01/12 02:39:12;;;;;;;4.05;2.30;;;3.90;81.00;;;;;;5036792;28;20471;-66
2024/01/12 02:41:38;;;;;;;5.78;3.28;;;3.80;81.00;;;;;;5031919;28;20044;-67
2024/01/12 02:44:04;;;;;;;7.28;2.92;;;3.90;81.00;;;;;;5034403;28;20029;-67
2024/01/12 02:46:29;;;;;;;7.22;2.75;;;3.80;81.00;;;;;;5035072;28;20033;-67
2024/01/12 02:48:55;;;;;;;5.70;3.03;;;3.90;81.00;;;;;;5071917;28;20395;-68
2024/01/12 02:51:21;;;;;;;8.40;3.03;;;3.90;81.00;;;;;;5035110;28;20636;-68
2024/01/12 02:53:47;;;;;;;6.22;3.25;;;3.90;81.00;;;;;;5034348;28;20056;-67
2024/01/12 02:56:12;;;;;;;5.35;3.00;;;3.90;81.00;;;;;;5031553;28;20033;-66
2024/01/12 02:58:39;;;;;;;5.22;3.03;;;3.90;81.00;;;;;;5037537;28;20397;-66
2024/01/12 03:01:07;;;;;;;4.65;2.78;;;3.90;81.10;;;;;;5035398;28;20442;-66
2024/01/12 03:03:33;;;;;;;7.20;2.88;;;3.90;81.10;;;;;;5032191;28;20519;-66
2024/01/12 03:06:00;;;;;;;4.78;3.00;;;3.90;81.10;;;;;;5035711;28;20112;-66
2024/01/12 03:08:26;;;;;;;10.63;2.67;;;3.90;81.10;;;;;;5041848;28;20025;-66
2024/01/12 03:10:52;;;;;;;7.30;3.08;;;3.90;81.20;;;;;;5030995;28;20558;-66
2024/01/12 03:13:18;;;;;;;5.75;2.42;;;3.80;81.20;;;;;;5038034;28;20025;-66
2024/01/12 03:15:43;;;;;;;4.78;3.13;;;3.90;81.30;;;;;;5038510;28;20052;-66
2024/01/12 03:18:09;;;;;;;6.55;3.03;;;3.90;81.20;;;;;;5035741;28;20033;-66
2024/01/12 03:20:35;;;;;;;6.03;3.38;;;3.90;81.20;;;;;;5034307;28;20029;-66
2024/01/12 03:23:01;;;;;;;5.95;3.42;;;3.90;81.20;;;;;;5037435;28;20040;-66
2024/01/12 03:25:26;;;;;;;6.05;3.50;;;3.90;81.20;;;;;;5036792;28;20048;-66
2024/01/12 03:27:52;;;;;;;6.43;2.58;;;3.90;81.20;;;;;;5032811;28;20037;-66
2024/01/12 03:30:18;;;;;;;4.15;2.97;;;3.90;81.20;;;;;;5039774;28;20052;-66
2024/01/12 03:32:43;;;;;;;8.10;3.22;;;3.90;81.20;;;;;;5038259;28;20041;-66
2024/01/12 03:35:10;;;;;;;11.45;2.90;;;3.90;81.10;;;;;;5030109;28;20025;-66
2024/01/12 03:37:35;;;;;;;7.50;3.05;;;3.90;81.20;;;;;;5023511;28;20305;-66
2024/01/12 03:40:01;;;;;;;6.30;3.00;;;3.90;81.10;;;;;;5036935;28;20037;-66
2024/01/12 03:42:27;;;;;;;2.97;2.50;;;3.90;81.00;;;;;;5038465;28;20037;-66
2024/01/12 03:44:52;;;;;;;3.53;1.90;;;3.90;81.10;;;;;;5038475;28;20373;-66
2024/01/12 03:47:18;;;;;;;4.60;3.00;;;3.90;81.10;;;;;;5041201;28;20036;-66
2024/01/12 03:49:44;;;;;;;9.13;2.60;;;3.90;81.10;;;;;;5040954;28;20454;-66
2024/01/12 03:52:10;;;;;;;6.63;2.35;;;3.90;81.20;;;;;;5038576;28;20017;-66
2024/01/12 03:54:35;;;;;;;6.68;2.70;;;3.90;81.20;;;;;;5038538;28;20049;-66
2024/01/12 03:57:02;;;;;;;5.40;3.17;;;3.90;81.20;;;;;;5045875;28;20523;-66
2024/01/12 03:59:28;;;;;;;3.35;2.13;;;4.00;81.20;;;;;;5040673;28;20028;-66
2024/01/12 04:01:53;;;;;;;3.90;1.83;;;3.90;81.10;;;;;;5042191;28;20492;-66
2024/01/12 04:04:19;;;;;;;7.20;2.75;;;4.00;81.10;;;;;;5035036;28;20029;-66
2024/01/12 04:06:45;;;;;;;3.03;2.08;;;4.00;81.20;;;;;;5042215;28;20399;-66
2024/01/12 04:09:11;;;;;;;4.22;2.67;;;4.00;81.20;;;;;;5035755;28;20045;-66
2024/01/12 04:11:37;;;;;;;5.20;2.38;;;4.00;81.20;;;;;;5030657;28;20049;-66
2024/01/12 04:14:03;;;;;;;6.18;3.00;;;4.00;81.20;;;;;;5035411;28;20026;-66
2024/01/12 04:16:29;;;;;;;6.22;2.03;;;4.00;81.20;;;;;;5061281;28;20030;-66
2024/01/12 04:18:55;;;;;;;3.60;2.08;;;4.00;81.20;;;;;;5030806;28;20057;-66
2024/01/12 04:21:21;;;;;;;5.57;2.75;;;4.00;81.10;;;;;;5038166;28;20064;-66
2024/01/12 04:23:47;;;;;;;6.88;2.40;;;4.00;81.10;;;;;;5028271;28;20065;-67
2024/01/12 04:26:13;;;;;;;3.38;1.75;;;4.00;81.10;;;;;;5029818;28;20030;-66
2024/01/12 04:28:40;;;;;;;2.13;1.92;;;4.00;81.10;;;;;;5036586;28;20504;-67
2024/01/12 04:31:06;;;;;;;4.03;1.90;;;4.00;81.10;;;;;;5041181;28;20106;-67
2024/01/12 04:33:33;;;;;;;5.80;2.17;;;4.00;81.10;;;;;;5038264;28;20038;-67
2024/01/12 04:36:00;;;;;;;7.55;2.67;;;4.10;81.20;;;;;;5031611;28;20029;-66
2024/01/12 04:38:26;;;;;;;6.97;2.92;;;4.10;81.10;;;;;;5036323;28;20022;-66
2024/01/12 04:40:53;;;;;;;4.47;2.60;;;4.00;81.10;;;;;;5040448;28;20065;-68
2024/01/12 04:43:19;;;;;;;4.45;2.10;;;4.10;81.10;;;;;;5031795;28;20029;-66
2024/01/12 04:45:44;;;;;;;4.95;2.45;;;4.10;81.10;;;;;;5031779;28;20075;-66
2024/01/12 04:48:10;;;;;;;6.47;2.20;;;4.10;81.10;;;;;;5029160;28;20401;-66
2024/01/12 04:50:36;;;;;;;3.55;1.83;;;4.10;81.00;;;;;;5027799;28;20048;-66
2024/01/12 04:53:02;;;;;;;5.10;2.38;;;4.10;80.90;;;;;;5028168;28;20029;-67
2024/01/12 04:55:27;;;;;;;4.53;1.67;;;4.20;81.00;;;;;;5028820;28;20128;-67
2024/01/12 04:57:53;;;;;;;5.90;2.88;;;4.20;81.00;;;;;;5018196;28;20116;-67
2024/01/12 05:00:19;;;;;;;6.35;1.77;;;4.10;80.90;;;;;;5067031;28;20033;-67
2024/01/12 05:02:45;;;;;;;7.60;1.85;;;4.10;80.90;;;;;;5027091;28;20110;-67
2024/01/12 05:05:11;;;;;;;9.13;2.28;;;4.10;81.00;;;;;;5032155;28;20053;-66
2024/01/12 05:07:37;;;;;;;3.88;1.92;;;4.10;81.00;;;;;;5027663;28;20049;-66
2024/01/12 05:10:04;;;;;;;4.18;1.63;;;4.10;81.00;;;;;;5033846;28;20053;-67
2024/01/12 05:12:29;;;;;;;2.25;2.03;;;4.10;81.00;;;;;;5027459;28;20036;-66
2024/01/12 05:14:55;;;;;;;6.13;2.05;;;4.10;81.00;;;;;;5029085;28;20033;-67
2024/01/12 05:17:22;;;;;;;6.45;2.15;;;4.10;81.00;;;;;;5032678;28;20045;-66
2024/01/12 05:19:48;;;;;;;3.38;2.28;;;4.10;81.00;;;;;;5032052;28;20061;-66
2024/01/12 05:22:14;;;;;;;5.60;2.63;;;4.10;81.00;;;;;;5030521;28;20033;-66
2024/01/12 05:24:40;;;;;;;5.10;2.33;;;4.10;81.00;;;;;;5031319;28;20056;-67
2024/01/12 05:27:06;;;;;;;3.15;1.70;;;4.10;81.10;;;;;;5028291;28;21244;-66
2024/01/12 05:29:32;;;;;;;4.40;2.00;;;4.10;81.30;;;;;;5032127;28;20495;-66
2024/01/12 05:31:58;;;;;;;8.73;2.05;;;4.10;81.40;;;;;;5029991;28;20026;-66
2024/01/12 05:34:24;;;;;;;2.05;1.50;;;4.20;81.30;;;;;;5032219;28;20412;-67
2024/01/12 05:36:49;;;;;;;2.42;1.70;;;4.20;81.80;;;;;;5036201;28;20068;-67
2024/01/12 05:39:16;;;;;;;2.22;1.77;;;4.30;81.10;;;;;;5027272;28;20063;-67
2024/01/12 05:41:41;;;;;;;2.80;1.85;;;4.30;81.00;;;;;;5023987;28;20034;-67
2024/01/12 05:44:07;;;;;;;4.10;2.05;;;4.30;80.90;;;;;;5032286;28;20053;-67
2024/01/12 05:46:33;;;;;;;6.68;1.80;;;4.30;80.90;;;;;;5030637;28;20385;-67
2024/01/12 05:49:03;;;;;;;6.47;1.70;;;4.40;80.90;;;;;;5026047;28;20034;-67
2024/01/12 05:51:32;;;;;;;3.95;2.10;;;4.40;80.80;;;;;;5029283;28;20037;-67
2024/01/12 05:53:58;;;;;;;2.40;1.27;;;4.40;80.90;;;;;;5031262;28;20022;-67
2024/01/12 05:56:23;;;;;;;2.67;1.88;;;4.30;80.80;;;;;;5030939;28;20030;-67
2024/01/12 05:58:50;;;;;;;3.20;2.22;;;4.30;80.80;;;;;;5036323;28;20021;-67
2024/01/12 06:01:17;;;;;;;3.08;1.90;;;4.30;80.90;;;;;;5035160;28;20111;-67
2024/01/12 06:03:44;;;;;;;5.32;1.73;;;4.30;80.90;;;;;;5029680;28;20029;-67
2024/01/12 06:06:09;;;;;;;4.40;1.77;;;4.30;80.90;;;;;;5032964;28;20446;-67
2024/01/12 06:08:35;;;;;;;2.05;1.70;;;4.30;80.90;;;;;;5034957;28;20033;-67
2024/01/12 06:11:01;;;;;;;5.93;1.55;;;4.30;81.00;;;;;;5032971;28;20030;-66
2024/01/12 06:13:26;;;;;;;5.75;2.67;;;4.30;81.00;;;;;;5034465;28;20030;-67
2024/01/12 06:15:52;;;;;;;2.13;1.48;;;4.30;81.00;;;;;;5032070;28;20037;-67
2024/01/12 06:18:18;;;;;;;2.58;1.60;;;4.30;81.00;;;;;;5032492;28;20366;-66
2024/01/12 06:20:43;;;;;;;3.28;1.52;;;4.30;80.90;;;;;;5034636;28;20038;-66
2024/01/12 06:23:09;;;;;;;6.18;2.45;;;4.30;80.90;;;;;;5035240;28;20061;-66
2024/01/12 06:25:38;;;;;;;11.93;2.90;;;4.30;80.90;;;;;;5035846;28;20033;-66
2024/01/12 06:28:04;;;;;;;6.15;2.13;;;4.30;80.90;;;;;;5031398;28;20463;-66
2024/01/12 06:30:29;;;;;;;3.35;1.83;;;4.30;81.10;;;;;;5034818;28;20032;-65
2024/01/12 06:32:55;;;;;;;7.03;1.85;;;4.20;81.00;;;;;;5034510;28;20041;-67
2024/01/12 06:35:21;;;;;;;7.88;2.17;;;4.30;81.10;;;;;;5038189;28;20028;-67
2024/01/12 06:37:47;;;;;;;4.18;1.90;;;4.30;81.00;;;;;;5035131;28;20451;-67
2024/01/12 06:40:12;;;;;;;5.82;2.05;;;4.30;81.00;;;;;;5036520;28;20124;-67
2024/01/12 06:42:38;;;;;;;5.15;1.83;;;4.30;80.90;;;;;;5036392;28;20029;-66
2024/01/12 06:45:07;;;;;;;9.68;1.98;;;4.30;80.90;;;;;;5041572;28;20499;-68
2024/01/12 06:47:34;;;;;;;2.83;2.05;;;4.30;80.90;;;;;;5026924;28;20025;-66
2024/01/12 06:50:00;;;;;;;3.55;1.80;;;4.30;81.00;;;;;;5031484;28;20032;-66
2024/01/12 06:52:26;;;;;;;4.78;2.10;;;4.20;80.90;;;;;;5031013;28;20052;-66
2024/01/12 06:54:52;;;;;;;5.35;2.28;;;4.20;80.90;;;;;;5032675;28;20088;-66
2024/01/12 06:57:17;;;;;;;2.83;2.17;;;4.20;80.90;;;;;;5038131;28;20032;-66
2024/01/12 06:59:43;;;;;;;2.35;1.75;;;4.20;80.90;;;;;;5031475;28;20037;-66
2024/01/12 07:02:09;;;;;;;3.20;1.65;;;4.30;81.00;;;;;;5039854;28;20044;-66
2024/01/12 07:04:35;;;;;;;3.95;1.90;;;4.30;80.90;;;;;;5040161;28;20566;-66
2024/01/12 07:07:02;;;;;;;4.78;2.15;;;4.30;81.00;;;;;;5038366;28;20033;-65
2024/01/12 07:09:27;;;;;;;5.35;2.00;;;4.30;81.00;;;;;;5036020;28;20041;-66
2024/01/12 07:11:53;;;;;;;2.92;1.92;;;4.20;80.90;;;;;;5036574;28;20049;-66
2024/01/12 07:14:19;;;;;;;1.98;1.63;;;4.30;81.00;;;;;;5040115;28;20029;-66
2024/01/12 07:16:45;;;;;;;6.68;2.15;;;4.30;81.00;;;;;;5042382;28;20055;-66
2024/01/12 07:19:11;;;;;;;3.80;2.20;;;4.30;80.90;;;;;;5032893;28;20128;-66
2024/01/12 07:21:37;;;;;;;1.60;1.50;;;4.30;81.00;;;;;;5041324;28;20124;-66
2024/01/12 07:24:03;;;;;;;6.22;2.13;;;4.30;81.00;;;;;;5034765;28;20040;-67
2024/01/12 07:26:29;;;;;;;2.55;1.45;;;4.20;80.90;;;;;;5034962;28;20056;-67
2024/01/12 07:28:54;;;;;;;3.65;1.70;;;4.30;81.00;;;;;;5037256;28;20030;-66
2024/01/12 07:31:20;;;;;;;5.57;2.08;;;4.30;81.00;;;;;;5033541;28;20438;-66
2024/01/12 07:33:46;;;;;;;2.70;1.77;;;4.20;81.60;;;;;;5033378;28;20028;-66
2024/01/12 07:36:11;;;;;;;3.03;1.85;;;4.20;81.10;;;;;;5038406;28;20028;-66
2024/01/12 07:38:37;;;;;;;3.63;2.00;;;4.20;81.10;;;;;;5035181;28;20025;-66
2024/01/12 07:41:03;;;;;;;2.25;1.75;;;4.20;81.30;;;;;;5041471;28;20028;-65
2024/01/12 07:43:30;;;;;;;2.78;1.50;;;4.20;81.30;;;;;;5029357;28;20360;-66
2024/01/12 07:45:56;;;;;;;8.38;1.70;;;4.20;81.30;;;;;;5032396;28;20033;-65
2024/01/12 07:48:22;;;;;;;4.97;2.53;;;4.20;81.30;;;;;;5029949;28;20087;-66
2024/01/12 07:50:48;;;;;;;5.45;2.25;;;4.30;81.30;;;;;;5035691;28;20484;-64
2024/01/12 07:53:13;;;;;;;3.58;2.05;;;4.30;81.30;;;;;;5025337;28;20528;-64
2024/01/12 07:55:39;;;;;;;6.18;2.67;;;4.20;81.20;;;;;;5031288;28;20108;-65
2024/01/12 07:58:05;;;;;;;3.65;1.48;;;4.30;81.20;;;;;;5033063;28;20455;-69
2024/01/12 08:00:30;;;;;;;3.72;1.80;;;4.30;81.20;;;;;;5038724;28;20485;-69
2024/01/12 08:02:56;;;;;;;5.95;2.88;;;4.30;81.20;;;;;;5032453;28;20037;-69
2024/01/12 08:05:22;;;;;;;1.73;1.20;;;4.30;81.20;;;;;;5031917;28;20067;-68
2024/01/12 08:11:58;;;;;;;5.90;1.83;;;4.40;81.10;;;;;;5004439;28;20524;-66
2024/01/12 08:14:23;;;;;;;3.63;1.98;;;4.40;81.10;;;;;;5033621;28;20033;-65
2024/01/12 08:16:49;;;;;;;4.82;2.22;;;4.40;81.20;;;;;;5031104;28;20035;-65
2024/01/12 08:19:15;;;;;;;6.82;2.33;;;4.40;81.20;;;;;;5036258;28;20037;-65
2024/01/12 08:35:09;;;;;;;4.70;2.28;;;4.60;81.10;;;;;;5021408;28;20120;-67
2024/01/12 08:37:34;;;;;;;4.25;1.92;;;4.60;81.10;;;;;;5032336;28;20357;-67
2024/01/12 08:40:00;;;;;;;9.32;2.35;;;4.60;81.10;;;;;;5034038;28;20025;-68
2024/01/12 08:42:26;;;;;;;3.45;1.42;;;4.70;81.10;;;;;;5037526;28;20029;-67
2024/01/12 08:44:51;;;;;;;2.42;1.60;;;4.70;81.00;;;;;;5034685;28;20029;-66
2024/01/12 08:47:19;;;;;;;2.83;1.73;;;4.80;81.00;;;;;;5064785;28;20377;-64
2024/01/12 08:49:45;;;;;;;3.35;2.05;;;4.80;80.90;;;;;;5032418;28;20435;-66
2024/01/12 08:52:10;;;;;;;3.38;2.15;;;4.80;80.80;;;;;;5032109;28;20022;-67
2024/01/12 08:54:36;;;;;;;2.42;1.52;;;4.90;80.90;;;;;;5029189;28;20556;-65
2024/01/12 08:57:01;;;;;;;5.85;1.48;;;4.90;80.90;;;;;;5030550;28;20036;-66
2024/01/12 08:59:28;;;;;;;5.57;2.22;;;4.90;80.80;;;;;;5031733;28;20087;-66
2024/01/12 09:01:54;;;;;;;10.73;2.00;;;4.90;80.90;;;;;;5037862;28;20029;-67
2024/01/12 09:04:20;;;;;;;2.60;2.13;;;5.00;80.90;;;;;;5033923;28;20087;-66
2024/01/12 09:06:46;;;;;;;5.90;1.67;;;5.00;80.90;;;;;;5037933;28;20526;-64
2024/01/12 09:09:11;;;;;;;7.57;2.10;;;5.00;80.90;;;;;;5027869;28;20025;-68
2024/01/12 09:11:37;;;;;;;4.00;1.58;;;5.00;80.70;;;;;;5037226;28;20087;-65
2024/01/12 09:14:03;;;;;;;3.83;2.15;;;5.10;80.80;;;;;;5031918;28;20045;-64
2024/01/12 09:16:29;;;;;;;5.50;2.20;;;5.00;80.80;;;;;;5033375;28;20060;-65
2024/01/12 09:18:55;;;;;;;2.28;1.75;;;5.10;80.80;;;;;;5026313;28;20064;-65
2024/01/12 09:21:20;;;;;;;3.47;1.65;;;5.10;80.70;;;;;;5033786;28;20111;-64
2024/01/12 09:23:46;;;;;;;2.25;1.90;;;5.20;80.70;;;;;;5036749;28;20117;-65
2024/01/12 09:26:12;;;;;;;5.53;2.10;;;5.20;80.60;;;;;;5037454;28;20045;-65
2024/01/12 09:28:38;;;;;;;3.65;1.73;;;5.20;80.50;;;;;;5030896;28;20037;-67
2024/01/12 09:31:04;;;;;;;3.15;1.63;;;5.20;80.50;;;;;;5034855;28;20048;-67
2024/01/12 09:33:30;;;;;;;4.47;2.03;;;5.30;80.50;;;;;;5039804;28;20029;-66
2024/01/12 09:35:56;;;;;;;2.95;1.95;;;5.30;80.50;;;;;;5033667;28;20038;-65
2024/01/12 09:38:22;;;;;;;1.63;1.17;;;5.40;80.50;;;;;;5032247;28;20492;-66
2024/01/12 09:40:48;;;;;;;5.30;2.05;;;5.30;80.40;;;;;;5031461;28;20540;-63
2024/01/12 09:43:14;;;;;;;1.83;1.73;;;5.40;80.50;;;;;;5026328;28;20134;-63
2024/01/12 09:45:44;;;;;;;5.88;1.92;;;5.40;80.40;;;;;;5014171;28;20022;-63
2024/01/12 09:48:10;;;;;;;2.35;1.60;;;5.50;80.40;;;;;;5029677;28;20060;-64
2024/01/12 09:50:36;;;;;;;2.95;2.03;;;5.50;80.40;;;;;;5022678;28;20041;-63
2024/01/12 09:53:02;;;;;;;7.03;1.75;;;5.50;80.40;;;;;;5031479;28;20038;-63
2024/01/12 09:55:28;;;;;;;5.75;1.27;;;5.60;80.40;;;;;;5024714;28;20029;-63
2024/01/12 09:57:54;;;;;;;1.92;1.27;;;5.50;80.20;;;;;;5028779;28;20040;-63
2024/01/12 10:00:24;;;;;;;3.28;1.45;;;5.60;80.30;;;;;;5023698;28;20624;-63
2024/01/12 10:02:50;;;;;;;2.70;1.60;;;5.60;80.20;;;;;;5025365;28;20026;-64
2024/01/12 10:05:19;;;;;;;3.88;1.48;;;5.50;80.20;;;;;;5023214;28;20037;-64
2024/01/12 10:07:45;;;;;;;5.63;1.70;;;5.60;80.30;;;;;;5027329;28;20040;-64
2024/01/12 10:10:10;;;;;;;8.77;1.92;;;5.60;80.20;;;;;;5017932;28;20034;-64
2024/01/12 10:12:36;;;;;;;6.57;1.48;;;5.60;80.20;;;;;;5032288;28;20111;-63
2024/01/12 10:18:24;;;;;;;4.63;2.25;;;5.60;80.20;;;;;;5021658;28;20118;-64
2024/01/12 10:20:50;;;;;;;5.03;2.15;;;5.60;80.40;;;;;;5032093;28;20141;-65
2024/01/12 10:23:22;;;;;;;3.83;2.20;;;5.60;80.40;;;;;;5023922;28;20026;-65
2024/01/12 10:26:01;;;;;;;5.60;1.77;;;5.60;80.40;;;;;;5032453;28;20033;-65
2024/01/12 10:28:28;;;;;;;1.17;1.05;;;5.60;80.40;;;;;;5029574;28;20436;-67
2024/01/12 10:30:54;;;;;;;8.38;2.05;;;5.60;80.50;;;;;;5025789;28;20041;-67
2024/01/12 10:33:20;;;;;;;1.83;1.45;;;5.60;80.40;;;;;;5033878;28;20061;-65
2024/01/12 10:36:03;;;;;;;2.67;1.80;;;5.60;80.30;;;;;;5028201;28;20397;-65
2024/01/12 10:38:31;;;;;;;2.55;1.83;;;5.60;80.30;;;;;;5022075;28;20087;-67
2024/01/12 10:40:59;;;;;;;4.32;1.90;;;5.60;80.40;;;;;;5029863;28;20099;-67
2024/01/12 10:43:28;;;;;;;7.78;2.53;;;5.60;80.40;;;;;;5025200;28;20037;-65
2024/01/12 10:45:58;;;;;;;2.58;1.83;;;5.60;80.20;;;;;;5030516;28;20029;-67
2024/01/12 10:48:27;;;;;;;2.75;1.63;;;5.70;80.30;;;;;;5025367;28;20034;-63
2024/01/12 10:50:58;;;;;;;3.53;1.55;;;5.70;80.80;;;;;;5031455;28;20033;-65
2024/01/12 10:53:36;;;;;;;5.30;1.58;;;5.80;80.10;;;;;;5025487;28;20045;-64
2024/01/12 10:56:03;;;;;;;2.05;1.30;;;5.80;80.10;;;;;;5029608;28;20032;-66
2024/01/12 10:58:29;;;;;;;2.53;1.45;;;5.80;80.00;;;;;;5026460;28;21223;-65
2024/01/12 11:00:55;;;;;;;4.20;1.90;;;5.70;80.00;;;;;;5030921;28;20052;-63
2024/01/12 11:03:22;;;;;;;3.65;2.10;;;5.80;80.70;;;;;;5027566;28;20037;-63
2024/01/12 11:05:48;;;;;;;4.22;2.15;;;5.80;80.20;;;;;;5034753;28;20387;-64
2024/01/12 11:08:15;;;;;;;3.20;1.55;;;5.80;80.20;;;;;;5026296;28;20033;-63
2024/01/12 11:10:52;;;;;;;2.08;1.17;;;5.80;80.00;;;;;;5034641;28;20033;-63
2024/01/12 11:13:19;;;;;;;2.33;1.73;;;5.80;80.00;;;;;;5039857;28;20044;-63
2024/01/12 11:15:49;;;;;;;4.82;2.42;;;5.90;80.00;;;;;;5038629;28;20049;-63
2024/01/12 11:18:16;;;;;;;3.47;1.40;;;5.90;80.00;;;;;;5029430;28;20496;-64
2024/01/12 11:20:43;;;;;;;4.22;1.65;;;5.90;80.00;;;;;;5031116;28;20477;-63
2024/01/12 11:23:10;;;;;;;3.38;1.55;;;5.90;79.90;;;;;;5026780;28;20029;-64
2024/01/12 11:25:35;;;;;;;29.42;3.22;;;5.90;79.90;;;;;;5027894;28;20370;-63
2024/01/12 11:28:01;;;;;;;3.85;1.83;;;5.90;79.90;;;;;;5032045;28;20040;-70
2024/01/12 11:30:29;;;;;;;3.67;1.75;;;5.90;79.90;;;;;;5036784;28;20365;-62
2024/01/12 11:33:03;;;;;;;6.80;1.67;;;5.90;79.90;;;;;;5033775;28;20037;-64
2024/01/12 11:35:30;;;;;;;2.45;1.77;;;5.90;79.90;;;;;;5028443;28;20041;-64
2024/01/12 11:38:06;;;;;;;3.05;1.88;;;6.00;79.90;;;;;;5037156;28;20079;-65
2024/01/12 11:40:32;;;;;;;5.40;2.40;;;6.00;79.80;;;;;;5030267;28;20144;-62
2024/01/12 11:43:00;;;;;;;4.70;2.08;;;5.90;79.90;;;;;;5025708;28;20461;-64
2024/01/12 11:45:26;;;;;;;2.70;2.13;;;5.90;79.90;;;;;;5059069;28;20524;-66
2024/01/12 11:47:53;;;;;;;1.88;1.15;;;6.00;80.00;;;;;;5036068;28;20045;-66
2024/01/12 11:50:24;;;;;;;5.40;1.80;;;6.00;79.90;;;;;;5030003;28;20056;-65
2024/01/12 11:52:58;;;;;;;9.00;2.30;;;6.00;79.90;;;;;;5032729;28;20428;-65
2024/01/12 11:55:24;;;;;;;4.28;2.03;;;6.00;79.80;;;;;;5032266;28;20025;-65
2024/01/12 11:57:54;;;;;;;3.10;2.30;;;6.10;80.00;;;;;;5028656;28;20028;-64
2024/01/12 12:00:21;;;;;;;5.75;1.88;;;6.10;79.70;;;;;;5025022;28;20119;-64
2024/01/12 12:02:48;;;;;;;3.80;1.75;;;6.20;79.70;;;;;;5028158;28;20582;-64
2024/01/12 12:05:13;;;;;;;3.35;1.35;;;6.20;79.50;;;;;;5030287;28;20041;-64
2024/01/12 12:07:40;;;;;;;4.82;1.90;;;6.20;79.50;;;;;;5033459;28;20132;-64
2024/01/12 12:10:07;;;;;;;3.50;1.50;;;6.30;79.50;;;;;;5040990;28;20029;-64
2024/01/12 12:12:33;;;;;;;2.00;1.20;;;6.30;79.40;;;;;;5015706;28;20034;-64
2024/01/12 12:15:15;;;;;;;3.85;2.38;;;6.30;79.40;;;;;;5034994;28;20033;-63
2024/01/12 12:17:48;;;;;;;2.67;1.25;;;6.30;79.30;;;;;;5021703;28;20121;-64
2024/01/12 12:20:15;;;;;;;3.80;2.08;;;6.30;79.40;;;;;;5038739;28;20051;-63
2024/01/12 12:22:42;;;;;;;2.70;1.42;;;6.30;79.40;;;;;;5039548;28;20029;-64
2024/01/12 12:25:15;;;;;;;3.30;1.27;;;6.30;79.40;;;;;;5026670;28;20033;-64
2024/01/12 12:27:43;;;;;;;4.40;1.20;;;6.30;79.40;;;;;;5029855;28;20038;-64
2024/01/12 12:30:11;;;;;;;2.55;1.67;;;6.40;79.50;;;;;;5028155;28;20033;-65
2024/01/12 12:32:41;;;;;;;6.93;1.67;;;6.40;80.00;;;;;;5027322;28;20060;-64
2024/01/12 12:35:13;;;;;;;4.63;2.00;;;6.40;79.30;;;;;;5032001;28;20029;-64
2024/01/12 12:37:40;;;;;;;1.10;0.98;;;6.40;79.20;;;;;;5028757;28;20472;-64
2024/01/12 12:40:09;;;;;;;2.80;1.63;;;6.40;79.30;;;;;;5033311;28;20137;-64
2024/01/12 12:42:35;;;;;;;3.03;1.25;;;6.40;79.20;;;;;;5029048;28;20032;-64
2024/01/12 12:45:01;;;;;;;4.85;2.08;;;6.50;79.20;;;;;;5033997;28;20447;-65
2024/01/12 12:47:27;;;;;;;3.88;1.25;;;6.50;79.10;;;;;;5028397;28;20140;-65
2024/01/12 12:49:52;;;;;;;4.20;1.67;;;6.50;79.10;;;;;;5031803;28;20124;-65
2024/01/12 12:52:18;;;;;;;2.78;1.60;;;6.50;79.10;;;;;;5024540;28;20025;-65
2024/01/12 12:54:44;;;;;;;4.20;2.35;;;6.50;79.10;;;;;;5021054;28;20117;-64
2024/01/12 12:57:11;;;;;;;4.10;2.00;;;6.50;79.10;;;;;;5022373;28;20041;-64
2024/01/12 12:59:37;;;;;;;5.45;1.45;;;6.50;79.00;;;;;;5028428;28;20103;-64
2024/01/12 13:02:03;;;;;;;3.55;1.65;;;6.50;79.00;;;;;;5025890;28;20506;-65
2024/01/12 13:04:29;;;;;;;3.85;2.08;;;6.50;79.10;;;;;;5021156;28;20045;-64
2024/01/12 13:06:54;;;;;;;3.95;1.60;;;6.60;79.10;;;;;;5025963;28;20099;-64
2024/01/12 13:09:20;;;;;;;1.73;1.13;;;6.60;79.00;;;;;;5024368;28;20049;-64
2024/01/12 13:11:46;;;;;;;1.77;1.15;;;6.70;78.80;;;;;;5027976;28;20037;-64